Time;durP1;ratioP1;P1;durP2;ratioP2;P2;SDS_P1;SDS_P2;PMS_P1;PMS_P2;Temp;Humidity;BMP_temperature;BMP_pressure;BME280_temperature;BME280_humidity;BME280_pressure;Samples;Min_cycle;Max_cycle;Signal;HPM_P1;HPM_P2
2023/11/25 00:00:16;;;;;;;;;;;5.20;91.40;;;;;;5069270;28;19920;-70
2023/11/25 00:02:42;;;;;;;;;;;5.20;91.50;;;;;;5068608;28;19928;-70
2023/11/25 00:05:08;;;;;;;;;;;5.20;91.60;;;;;;5067506;28;19915;-69
2023/11/25 00:07:34;;;;;;;;;;;5.20;91.60;;;;;;5068684;28;20332;-69
2023/11/25 00:09:59;;;;;;;;;;;5.20;91.50;;;;;;5068880;28;20352;-70
2023/11/25 00:12:25;;;;;;;;;;;5.20;91.50;;;;;;5068652;28;19913;-69
2023/11/25 00:14:51;;;;;;;;;;;5.20;91.50;;;;;;5068652;28;19938;-69
2023/11/25 00:17:17;;;;;;;;;;;5.10;91.50;;;;;;5068574;28;20007;-69
2023/11/25 00:19:43;;;;;;;;;;;5.10;91.50;;;;;;5068430;28;19962;-69
2023/11/25 00:22:08;;;;;;;;;;;5.10;91.60;;;;;;5068417;28;19916;-70
2023/11/25 00:24:35;;;;;;;;;;;5.20;91.60;;;;;;5067213;28;20331;-70
2023/11/25 00:27:01;;;;;;;;;;;5.20;91.60;;;;;;5068377;28;20437;-70
2023/11/25 00:29:28;;;;;;;;;;;5.20;91.60;;;;;;5068660;28;19948;-70
2023/11/25 00:31:54;;;;;;;;;;;5.20;91.60;;;;;;5067487;28;20394;-69
2023/11/25 00:34:21;;;;;;;;;;;5.20;91.60;;;;;;5068428;28;19912;-70
2023/11/25 00:36:47;;;;;;;;;;;5.30;91.50;;;;;;5068150;28;20304;-70
2023/11/25 00:39:15;;;;;;;;;;;5.20;91.30;;;;;;5068096;28;19924;-70
2023/11/25 00:41:41;;;;;;;;;;;5.20;91.20;;;;;;5068211;28;19919;-70
2023/11/25 00:44:07;;;;;;;;;;;5.00;91.20;;;;;;5068135;28;19919;-69
2023/11/25 00:46:33;;;;;;;;;;;4.90;91.20;;;;;;5068185;28;20019;-70
2023/11/25 00:48:59;;;;;;;;;;;4.80;91.20;;;;;;5068247;28;19913;-70
2023/11/25 00:51:24;;;;;;;;;;;4.70;91.20;;;;;;5067892;28;19920;-70
2023/11/25 00:53:50;;;;;;;;;;;4.70;91.30;;;;;;5068853;28;19955;-70
2023/11/25 00:56:16;;;;;;;;;;;4.60;91.30;;;;;;5068173;28;19999;-70
2023/11/25 00:58:41;;;;;;;;;;;4.60;91.30;;;;;;5068007;28;19927;-70
2023/11/25 01:01:07;;;;;;;;;;;4.60;91.30;;;;;;5067879;28;19920;-70
2023/11/25 01:03:33;;;;;;;;;;;4.50;91.30;;;;;;5067882;28;19928;-70
2023/11/25 01:05:59;;;;;;;;;;;4.40;91.30;;;;;;5066538;28;19987;-70
2023/11/25 01:08:29;;;;;;;;;;;4.40;91.30;;;;;;5066622;28;19916;-70
2023/11/25 01:10:54;;;;;;;;;;;4.30;91.30;;;;;;5067767;28;19912;-70
2023/11/25 01:13:20;;;;;;;;;;;4.30;91.30;;;;;;5067903;28;19913;-70
2023/11/25 01:15:46;;;;;;;;;;;4.30;91.40;;;;;;5067881;28;19995;-70
2023/11/25 01:18:11;;;;;;;;;;;4.20;91.40;;;;;;5067865;28;20419;-70
2023/11/25 01:20:37;;;;;;;;;;;4.20;91.40;;;;;;5066523;28;19917;-70
2023/11/25 01:23:02;;;;;;;;;;;4.20;91.40;;;;;;5067798;28;19958;-70
2023/11/25 01:25:28;;;;;;;;;;;4.20;91.60;;;;;;5067538;28;20305;-70
2023/11/25 01:27:54;;;;;;;;;;;4.20;91.40;;;;;;5068028;28;20325;-70
2023/11/25 01:30:20;;;;;;;;;;;4.20;91.40;;;;;;5067747;28;19956;-70
2023/11/25 01:32:45;;;;;;;;;;;4.20;91.40;;;;;;5067757;28;19916;-70
2023/11/25 01:35:11;;;;;;;;;;;4.20;91.40;;;;;;5067537;28;19913;-70
2023/11/25 01:37:37;;;;;;;;;;;4.20;91.50;;;;;;5067530;28;19958;-70
2023/11/25 01:40:10;;;;;;;;;;;4.20;91.60;;;;;;5067740;28;19912;-70
2023/11/25 01:42:36;;;;;;;;;;;4.30;91.70;;;;;;5068118;28;19977;-70
2023/11/25 01:45:02;;;;;;;;;;;4.30;91.60;;;;;;5070454;28;20368;-70
2023/11/25 01:47:28;;;;;;;;;;;4.40;91.60;;;;;;5071527;28;19952;-70
2023/11/25 01:49:54;;;;;;;;;;;4.50;91.60;;;;;;5071588;28;19999;-70
2023/11/25 01:52:20;;;;;;;;;;;4.50;91.50;;;;;;5071544;28;20011;-70
2023/11/25 01:54:45;;;;;;;;;;;4.50;91.50;;;;;;5070129;28;19913;-70
2023/11/25 01:57:12;;;;;;;;;;;4.50;91.50;;;;;;5070112;28;20335;-70
2023/11/25 01:59:39;;;;;;;;;;;4.50;91.60;;;;;;5071173;28;19977;-70
2023/11/25 02:02:05;;;;;;;;;;;4.50;91.60;;;;;;5071259;28;19971;-70
2023/11/25 02:04:33;;;;;;;;;;;4.50;91.60;;;;;;5071281;28;19920;-70
2023/11/25 02:07:00;;;;;;;;;;;4.50;91.50;;;;;;5071279;28;19928;-70
2023/11/25 02:09:25;;;;;;;;;;;4.40;91.50;;;;;;5071348;28;19970;-70
2023/11/25 02:11:58;;;;;;;;;;;4.30;91.50;;;;;;5071250;28;19913;-70
2023/11/25 02:14:27;;;;;;;;;;;4.30;91.50;;;;;;5071570;28;20284;-70
2023/11/25 02:16:53;;;;;;;;;;;4.20;91.40;;;;;;5069593;28;19924;-70
2023/11/25 02:19:24;;;;;;;;;;;4.10;91.50;;;;;;5070945;28;20258;-70
2023/11/25 02:21:50;;;;;;;;;;;4.10;91.50;;;;;;5071032;28;19912;-70
2023/11/25 02:24:16;;;;;;;;;;;3.90;91.40;;;;;;5070997;28;19908;-70
2023/11/25 02:26:42;;;;;;;;;;;3.80;91.50;;;;;;5070816;28;19918;-70
2023/11/25 02:29:09;;;;;;;;;;;3.80;91.50;;;;;;5070924;28;20307;-70
2023/11/25 02:31:38;;;;;;;;;;;3.70;91.50;;;;;;5070922;28;19919;-70
2023/11/25 02:34:06;;;;;;;;;;;3.70;91.40;;;;;;5070761;28;19999;-70
2023/11/25 02:36:32;;;;;;;;;;;3.60;91.30;;;;;;5070736;28;19913;-70
2023/11/25 02:38:57;;;;;;;;;;;3.50;91.40;;;;;;5070621;28;20403;-70
2023/11/25 02:41:23;;;;;;;;;;;3.50;91.40;;;;;;5069281;28;20237;-70
2023/11/25 02:43:49;;;;;;;;;;;3.40;91.30;;;;;;5070541;28;20262;-70
2023/11/25 02:46:15;;;;;;;;;;;3.40;91.30;;;;;;5070556;28;19909;-70
2023/11/25 02:48:40;;;;;;;;;;;3.30;91.30;;;;;;5070512;28;20372;-70
2023/11/25 02:51:09;;;;;;;;;;;3.20;91.40;;;;;;5070751;28;19923;-70
2023/11/25 02:53:35;;;;;;;;;;;3.20;91.50;;;;;;5069187;28;19920;-70
2023/11/25 02:56:00;;;;;;;;;;;3.20;91.50;;;;;;5069428;28;20054;-70
2023/11/25 02:58:27;;;;;;;;;;;3.20;91.40;;;;;;5070221;28;19920;-70
2023/11/25 03:01:01;;;;;;;;;;;3.10;91.40;;;;;;5070456;28;19920;-70
2023/11/25 03:03:27;;;;;;;;;;;3.20;91.50;;;;;;5070311;28;19928;-70
2023/11/25 03:05:53;;;;;;;;;;;3.20;91.60;;;;;;5070101;28;19916;-70
2023/11/25 03:08:20;;;;;;;;;;;3.20;91.60;;;;;;5070266;28;20377;-70
2023/11/25 03:10:46;;;;;;;;;;;3.20;91.40;;;;;;5070221;28;20206;-70
2023/11/25 03:13:12;;;;;;;;;;;3.20;91.40;;;;;;5070092;28;19917;-70
2023/11/25 03:15:38;;;;;;;;;;;3.20;91.40;;;;;;5069829;28;20302;-70
2023/11/25 03:18:05;;;;;;;;;;;3.20;91.50;;;;;;5069786;28;19913;-70
2023/11/25 03:20:34;;;;;;;;;;;3.20;91.50;;;;;;5069849;28;19919;-70
2023/11/25 03:23:01;;;;;;;;;;;3.20;91.40;;;;;;5069811;28;20319;-70
2023/11/25 03:25:27;;;;;;;;;;;3.20;91.40;;;;;;5069672;28;19920;-70
2023/11/25 03:27:53;;;;;;;;;;;3.20;91.40;;;;;;5069889;28;19912;-70
2023/11/25 03:30:19;;;;;;;;;;;3.20;91.40;;;;;;5068598;28;19935;-70
2023/11/25 03:32:45;;;;;;;;;;;3.20;91.30;;;;;;5069723;28;19909;-70
2023/11/25 03:35:10;;;;;;;;;;;3.20;91.30;;;;;;5069742;28;20436;-70
2023/11/25 03:37:36;;;;;;;;;;;3.20;91.30;;;;;;5069656;28;19912;-70
2023/11/25 03:40:04;;;;;;;;;;;3.20;91.30;;;;;;5069478;28;20370;-70
2023/11/25 03:42:30;;;;;;;;;;;3.30;91.30;;;;;;5069438;28;19995;-70
2023/11/25 03:44:55;;;;;;;;;;;3.20;91.20;;;;;;5069501;28;19959;-70
2023/11/25 03:47:21;;;;;;;;;;;3.20;91.20;;;;;;5069390;28;19938;-70
2023/11/25 03:49:46;;;;;;;;;;;3.20;91.20;;;;;;5069282;28;19919;-70
2023/11/25 03:52:12;;;;;;;;;;;3.10;91.20;;;;;;5068087;28;19912;-70
2023/11/25 03:54:38;;;;;;;;;;;3.00;91.20;;;;;;5069337;28;19958;-70
2023/11/25 03:57:03;;;;;;;;;;;3.00;91.30;;;;;;5067890;28;19912;-70
2023/11/25 03:59:29;;;;;;;;;;;3.00;91.40;;;;;;5069159;28;20487;-70
2023/11/25 04:01:55;;;;;;;;;;;3.00;91.40;;;;;;5069275;28;19920;-70
2023/11/25 04:04:21;;;;;;;;;;;3.00;91.30;;;;;;5068897;28;19924;-70
2023/11/25 04:06:47;;;;;;;;;;;3.00;91.30;;;;;;5068884;28;19993;-70
2023/11/25 04:09:13;;;;;;;;;;;3.00;91.30;;;;;;5067645;28;19923;-70
2023/11/25 04:11:44;;;;;;;;;;;2.90;91.30;;;;;;5068968;28;19912;-70
2023/11/25 04:14:12;;;;;;;;;;;2.90;91.30;;;;;;5068182;28;20214;-70
2023/11/25 04:16:38;;;;;;;;;;;2.80;91.30;;;;;;5068827;28;20365;-69
2023/11/25 04:19:05;;;;;;;;;;;2.80;91.40;;;;;;5068859;28;19970;-70
2023/11/25 04:21:30;;;;;;;;;;;2.80;91.40;;;;;;5068776;28;20015;-70
2023/11/25 04:23:56;;;;;;;;;;;2.80;91.40;;;;;;5067513;28;19991;-70
2023/11/25 04:26:22;;;;;;;;;;;2.70;91.30;;;;;;5068613;28;20351;-70
2023/11/25 04:28:48;;;;;;;;;;;2.70;91.40;;;;;;5068600;28;19912;-70
2023/11/25 04:31:14;;;;;;;;;;;2.60;91.40;;;;;;5067354;28;19913;-70
2023/11/25 04:33:40;;;;;;;;;;;2.70;91.50;;;;;;5068649;28;20348;-70
2023/11/25 04:36:06;;;;;;;;;;;2.70;91.50;;;;;;5068512;28;19956;-70
2023/11/25 04:38:31;;;;;;;;;;;2.70;91.50;;;;;;5068374;28;19931;-70
2023/11/25 04:40:57;;;;;;;;;;;2.80;91.50;;;;;;5068397;28;20011;-70
2023/11/25 04:43:24;;;;;;;;;;;2.80;91.50;;;;;;5068875;28;20404;-70
2023/11/25 04:45:49;;;;;;;;;;;2.80;91.60;;;;;;5068529;28;19966;-70
2023/11/25 04:48:15;;;;;;;;;;;2.80;91.70;;;;;;5068374;28;20289;-70
2023/11/25 04:50:40;;;;;;;;;;;3.00;91.70;;;;;;5068199;28;19955;-70
2023/11/25 04:53:06;;;;;;;;;;;3.10;91.80;;;;;;5068198;28;19945;-70
2023/11/25 04:55:31;;;;;;;;;;;3.20;91.70;;;;;;5068375;28;20427;-70
2023/11/25 04:57:57;;;;;;;;;;;3.20;91.70;;;;;;5068274;28;19930;-70
2023/11/25 05:00:23;;;;;;;;;;;3.20;91.70;;;;;;5068023;28;20036;-70
2023/11/25 05:02:48;;;;;;;;;;;3.30;91.80;;;;;;5068036;28;19925;-70
2023/11/25 05:05:14;;;;;;;;;;;3.40;91.80;;;;;;5068074;28;20284;-70
2023/11/25 05:07:40;;;;;;;;;;;3.40;91.70;;;;;;5066533;28;19913;-70
2023/11/25 05:10:09;;;;;;;;;;;3.40;91.70;;;;;;5068094;28;19912;-70
2023/11/25 05:12:35;;;;;;;;;;;3.40;91.70;;;;;;5067973;28;20287;-70
2023/11/25 05:15:00;;;;;;;;;;;3.40;91.70;;;;;;5050158;28;20277;-70
2023/11/25 05:17:26;;;;;;;;;;;3.40;91.80;;;;;;5067117;28;19923;-70
2023/11/25 05:19:52;;;;;;;;;;;3.50;91.90;;;;;;5067833;28;20357;-70
2023/11/25 05:22:17;;;;;;;;;;;3.50;91.80;;;;;;5068311;28;19923;-70
2023/11/25 05:24:43;;;;;;;;;;;3.70;91.90;;;;;;5068142;28;19916;-70
2023/11/25 05:27:09;;;;;;;;;;;3.80;91.90;;;;;;5067756;28;19908;-71
2023/11/25 05:29:34;;;;;;;;;;;3.90;91.80;;;;;;5067778;28;20128;-70
2023/11/25 05:32:02;;;;;;;;;;;3.90;91.70;;;;;;5067892;28;19915;-70
2023/11/25 05:34:28;;;;;;;;;;;4.00;91.60;;;;;;5067767;28;19931;-70
2023/11/25 05:36:53;;;;;;;;;;;3.90;91.50;;;;;;5067674;28;20693;-70
2023/11/25 05:39:20;;;;;;;;;;;3.80;91.40;;;;;;5066333;28;19917;-70
2023/11/25 05:41:46;;;;;;;;;;;3.70;91.50;;;;;;5067812;28;19947;-70
2023/11/25 05:44:12;;;;;;;;;;;3.70;91.40;;;;;;5067778;28;19917;-70
2023/11/25 05:46:38;;;;;;;;;;;3.60;91.30;;;;;;5067592;28;19932;-70
2023/11/25 05:49:12;;;;;;;;;;;3.60;91.30;;;;;;5067762;28;19952;-70
2023/11/25 05:51:39;;;;;;;;;;;3.50;91.20;;;;;;5067616;28;19950;-70
2023/11/25 05:54:05;;;;;;;;;;;3.50;91.20;;;;;;5066485;28;19919;-70
2023/11/25 05:56:31;;;;;;;;;;;3.40;91.20;;;;;;5067591;28;19951;-70
2023/11/25 05:58:57;;;;;;;;;;;3.40;91.20;;;;;;5067490;28;19948;-70
2023/11/25 06:01:23;;;;;;;;;;;3.30;91.20;;;;;;5067496;28;20407;-69
2023/11/25 06:03:52;;;;;;;;;;;3.30;91.20;;;;;;5067319;28;19947;-70
2023/11/25 06:06:21;;;;;;;;;;;3.30;91.20;;;;;;5067375;28;19912;-70
2023/11/25 06:08:47;;;;;;;;;;;3.20;91.20;;;;;;5066225;28;19923;-70
2023/11/25 06:11:22;;;;;;;;;;;3.20;91.20;;;;;;5067442;28;20267;-70
2023/11/25 06:13:48;;;;;;;;;;;3.20;91.20;;;;;;5067592;28;19908;-70
2023/11/25 06:16:14;;;;;;;;;;;3.20;91.30;;;;;;5067294;28;19913;-70
2023/11/25 06:18:40;;;;;;;;;;;3.20;91.30;;;;;;5067272;28;20283;-70
2023/11/25 06:21:06;;;;;;;;;;;3.30;91.30;;;;;;5067294;28;20003;-70
2023/11/25 06:23:32;;;;;;;;;;;3.30;91.30;;;;;;5067540;28;20419;-70
2023/11/25 06:25:58;;;;;;;;;;;3.30;91.20;;;;;;5067200;28;19912;-70
2023/11/25 06:28:24;;;;;;;;;;;3.30;91.10;;;;;;5067806;28;19937;-70
2023/11/25 06:30:53;;;;;;;;;;;3.30;91.20;;;;;;5070921;28;20008;-70
2023/11/25 06:33:20;;;;;;;;;;;3.20;91.20;;;;;;5070799;28;19955;-70
2023/11/25 06:35:46;;;;;;;;;;;3.20;91.30;;;;;;5070694;28;19917;-70
2023/11/25 06:38:11;;;;;;;;;;;3.20;91.40;;;;;;5070800;28;19942;-70
2023/11/25 06:40:37;;;;;;;;;;;3.30;91.40;;;;;;5070754;28;19921;-70
2023/11/25 06:43:03;;;;;;;;;;;3.30;91.40;;;;;;5070654;28;19916;-71
2023/11/25 06:45:29;;;;;;;;;;;3.40;91.40;;;;;;5070296;28;19974;-70
2023/11/25 06:47:54;;;;;;;;;;;3.50;91.40;;;;;;5070711;28;19919;-70
2023/11/25 06:50:20;;;;;;;;;;;3.60;91.40;;;;;;5070524;28;19912;-70
2023/11/25 06:52:46;;;;;;;;;;;3.60;91.40;;;;;;5069355;28;20480;-70
2023/11/25 06:55:11;;;;;;;;;;;3.60;91.30;;;;;;5070836;28;19916;-70
2023/11/25 06:57:38;;;;;;;;;;;3.70;91.30;;;;;;5070989;28;19916;-70
2023/11/25 07:00:08;;;;;;;;;;;3.70;91.20;;;;;;5070116;28;19920;-71
2023/11/25 07:02:34;;;;;;;;;;;3.60;91.30;;;;;;5070487;28;19924;-70
2023/11/25 07:04:59;;;;;;;;;;;3.60;91.40;;;;;;5070430;28;20300;-71
2023/11/25 07:07:25;;;;;;;;;;;3.60;91.40;;;;;;5070303;28;20018;-70
2023/11/25 07:09:51;;;;;;;;;;;3.60;91.40;;;;;;5070210;28;19912;-70
2023/11/25 07:12:16;;;;;;;;;;;3.60;91.40;;;;;;5070155;28;19912;-70
2023/11/25 07:14:43;;;;;;;;;;;3.60;91.50;;;;;;5068814;28;19958;-70
2023/11/25 07:17:11;;;;;;;;;;;3.60;91.50;;;;;;5068634;28;20365;-70
2023/11/25 07:19:38;;;;;;;;;;;3.60;91.50;;;;;;5069973;28;19921;-70
2023/11/25 07:22:04;;;;;;;;;;;3.70;91.40;;;;;;5069942;28;19908;-70
2023/11/25 07:24:31;;;;;;;;;;;3.70;91.40;;;;;;5069847;28;19939;-70
2023/11/25 07:27:01;;;;;;;;;;;3.60;91.40;;;;;;5069847;28;20399;-70
2023/11/25 07:29:30;;;;;;;;;;;3.60;91.40;;;;;;5069730;28;19919;-70
2023/11/25 07:31:57;;;;;;;;;;;3.60;91.30;;;;;;5069695;28;19991;-70
2023/11/25 07:34:22;;;;;;;;;;;3.60;91.30;;;;;;5069602;28;19970;-70
2023/11/25 07:36:48;;;;;;;;;;;3.60;91.30;;;;;;5069668;28;19912;-70
2023/11/25 07:39:19;;;;;;;;;;;3.60;91.30;;;;;;5069494;28;19923;-70
2023/11/25 07:41:45;;;;;;;;;;;3.60;91.30;;;;;;5069096;28;20006;-70
2023/11/25 07:44:11;;;;;;;;;;;3.50;91.30;;;;;;5069504;28;20437;-70
2023/11/25 07:46:37;;;;;;;;;;;3.50;91.30;;;;;;5068030;28;19995;-70
2023/11/25 07:49:02;;;;;;;;;;;3.50;91.40;;;;;;5068226;28;20007;-70
2023/11/25 07:51:28;;;;;;;;;;;3.50;91.40;;;;;;5069450;28;20383;-70
2023/11/25 07:53:53;;;;;;;;;;;3.60;91.40;;;;;;5068056;28;19916;-71
2023/11/25 07:56:20;;;;;;;;;;;3.50;91.40;;;;;;5069174;28;19908;-70
2023/11/25 07:58:46;;;;;;;;;;;3.50;91.40;;;;;;5069063;28;20312;-69
2023/11/25 08:01:12;;;;;;;;;;;3.50;91.40;;;;;;5069244;28;19916;-70
2023/11/25 08:03:38;;;;;;;;;;;3.50;91.40;;;;;;5068877;28;19979;-69
2023/11/25 08:06:05;;;;;;;;;;;3.50;91.30;;;;;;5067796;28;19956;-70
2023/11/25 08:08:30;;;;;;;;;;;3.50;91.40;;;;;;5068823;28;19913;-70
2023/11/25 08:10:57;;;;;;;;;;;3.60;91.40;;;;;;5067569;28;19919;-70
2023/11/25 08:13:23;;;;;;;;;;;3.60;91.40;;;;;;5068785;28;19920;-70
2023/11/25 08:15:49;;;;;;;;;;;3.60;91.50;;;;;;5050650;28;19913;-67
2023/11/25 08:18:16;;;;;;;;;;;3.70;91.50;;;;;;5068512;28;19936;-70
2023/11/25 08:20:42;;;;;;;;;;;3.70;91.40;;;;;;5068708;28;20338;-70
2023/11/25 08:23:09;;;;;;;;;;;3.80;91.40;;;;;;5068410;28;20038;-70
2023/11/25 08:25:35;;;;;;;;;;;3.80;91.40;;;;;;5068224;28;20276;-70
2023/11/25 08:28:00;;;;;;;;;;;3.80;91.50;;;;;;5068425;28;19916;-70
2023/11/25 08:30:26;;;;;;;;;;;3.90;91.60;;;;;;5067937;28;20239;-70
2023/11/25 08:32:52;;;;;;;;;;;4.00;91.60;;;;;;5068601;28;19912;-70
2023/11/25 08:35:17;;;;;;;;;;;4.10;91.60;;;;;;5068297;28;20051;-71
2023/11/25 08:37:43;;;;;;;;;;;4.10;91.50;;;;;;5068483;28;20336;-70
2023/11/25 08:40:16;;;;;;;;;;;4.10;91.50;;;;;;5066921;28;19916;-70
2023/11/25 08:42:45;;;;;;;;;;;4.10;91.40;;;;;;5068079;28;20479;-70
2023/11/25 08:45:11;;;;;;;;;;;4.10;91.40;;;;;;5068208;28;19966;-70
2023/11/25 08:47:38;;;;;;;;;;;4.10;91.50;;;;;;5067849;28;19920;-70
2023/11/25 08:50:07;;;;;;;;;;;4.10;91.80;;;;;;5066816;28;19913;-70
2023/11/25 08:52:35;;;;;;;;;;;4.20;91.60;;;;;;5067350;28;19919;-70
2023/11/25 08:55:01;;;;;;;;;;;4.20;91.70;;;;;;5067601;28;20327;-71
2023/11/25 08:57:27;;;;;;;;;;;4.30;91.80;;;;;;5067407;28;19913;-70
2023/11/25 08:59:52;;;;;;;;;;;4.50;92.20;;;;;;5066241;28;19916;-70
2023/11/25 09:02:22;;;;;;;;;;;4.90;92.60;;;;;;5067194;28;19920;-70
2023/11/25 09:04:48;;;;;;;;;;;5.10;92.30;;;;;;5068014;28;19916;-71
2023/11/25 09:07:14;;;;;;;;;;;5.30;92.20;;;;;;5067664;28;19930;-70
2023/11/25 09:09:45;;;;;;;;;;;5.40;92.00;;;;;;5068039;28;19913;-70
2023/11/25 09:12:11;;;;;;;;;;;5.40;91.90;;;;;;5067777;28;19915;-70
2023/11/25 09:14:38;;;;;;;;;;;5.40;91.80;;;;;;5067584;28;19995;-70
2023/11/25 09:17:03;;;;;;;;;;;5.40;91.70;;;;;;5067582;28;20292;-68
2023/11/25 09:19:29;;;;;;;;;;;5.30;91.70;;;;;;5067567;28;19916;-69
2023/11/25 09:21:55;;;;;;;;;;;5.30;91.70;;;;;;5067501;28;20329;-69
2023/11/25 09:24:20;;;;;;;;;;;5.30;91.80;;;;;;5067452;28;20281;-69
2023/11/25 09:26:47;;;;;;;;;;;5.30;91.80;;;;;;5067139;28;20272;-69
2023/11/25 09:29:12;;;;;;;;;;;5.30;91.70;;;;;;5049445;28;20424;-69
2023/11/25 09:31:38;;;;;;;;;;;5.30;91.80;;;;;;5067434;28;20031;-69
2023/11/25 09:34:03;;;;;;;;;;;5.40;91.80;;;;;;5067417;28;19920;-69
2023/11/25 09:36:29;;;;;;;;;;;5.40;91.80;;;;;;5065711;28;19941;-69
2023/11/25 09:38:56;;;;;;;;;;;5.40;91.80;;;;;;5066887;28;19916;-69
2023/11/25 09:41:22;;;;;;;;;;;5.40;91.80;;;;;;5071978;28;20024;-68
2023/11/25 09:43:47;;;;;;;;;;;5.40;91.90;;;;;;5072838;28;19923;-72
2023/11/25 09:46:13;;;;;;;;;;;5.50;92.00;;;;;;5076656;28;19924;-69
2023/11/25 09:48:40;;;;;;;;;;;5.50;91.90;;;;;;5076651;28;19935;-69
2023/11/25 09:51:08;;;;;;;;;;;5.60;92.00;;;;;;5079372;28;19912;-69
2023/11/25 09:53:35;;;;;;;;;;;5.60;92.00;;;;;;5077198;28;19951;-69
2023/11/25 09:56:05;;;;;;;;;;;5.70;92.00;;;;;;5077178;28;20670;-69
2023/11/25 09:58:34;;;;;;;;;;;5.80;92.10;;;;;;5077281;28;20318;-71
2023/11/25 10:01:00;;;;;;;;;;;5.90;92.20;;;;;;5078388;28;20568;-73
2023/11/25 10:03:32;;;;;;;;;;;5.90;92.10;;;;;;5077729;28;19924;-74
2023/11/25 10:05:58;;;;;;;;;;;6.00;92.10;;;;;;5083928;28;19935;-78
2023/11/25 10:08:24;;;;;;;;;;;6.10;92.10;;;;;;5093282;28;20364;-78
2023/11/25 10:11:05;;;;;;;;;;;6.10;92.00;;;;;;5092019;28;19912;-77
2023/11/25 10:13:38;;;;;;;;;;;6.20;92.10;;;;;;5086674;28;19912;-77
2023/11/25 10:16:05;;;;;;;;;;;6.30;92.10;;;;;;5090380;28;19943;-77
2023/11/25 10:18:31;;;;;;;;;;;6.50;92.20;;;;;;5092813;28;20450;-78
2023/11/25 10:20:58;;;;;;;;;;;6.60;92.10;;;;;;5092988;28;19915;-78
2023/11/25 10:23:27;;;;;;;;;;;6.60;91.90;;;;;;5080295;28;20015;-78
2023/11/25 10:25:53;;;;;;;;;;;6.70;92.00;;;;;;5086792;28;19989;-74
2023/11/25 10:28:25;;;;;;;;;;;6.80;92.10;;;;;;5080293;28;19912;-76
2023/11/25 10:30:57;;;;;;;;;;;6.80;92.10;;;;;;5075964;28;19924;-75
2023/11/25 10:33:24;;;;;;;;;;;6.80;92.10;;;;;;5075618;28;19934;-75
2023/11/25 10:35:50;;;;;;;;;;;6.90;92.20;;;;;;5085191;28;19915;-77
2023/11/25 10:38:21;;;;;;;;;;;7.00;92.30;;;;;;5086949;28;19908;-77
2023/11/25 10:40:50;;;;;;;;;;;7.20;92.40;;;;;;5081872;28;19958;-77
2023/11/25 10:43:18;;;;;;;;;;;7.40;92.50;;;;;;5080215;28;19933;-77
2023/11/25 10:45:44;;;;;;;;;;;7.60;92.40;;;;;;5075004;28;19951;-76
2023/11/25 10:48:11;;;;;;;;;;;7.70;92.30;;;;;;5080153;28;19931;-75
2023/11/25 10:50:37;;;;;;;;;;;7.80;92.20;;;;;;5075667;28;20002;-77
2023/11/25 10:53:05;;;;;;;;;;;7.80;92.20;;;;;;5090658;28;20544;-78
2023/11/25 10:55:32;;;;;;;;;;;7.90;92.30;;;;;;5077790;28;19912;-77
2023/11/25 10:58:00;;;;;;;;;;;8.10;92.30;;;;;;5079127;28;19974;-78
2023/11/25 11:00:29;;;;;;;;;;;8.10;92.20;;;;;;5088311;28;20357;-78
2023/11/25 11:02:57;;;;;;;;;;;8.00;92.30;;;;;;5077764;28;19951;-79
2023/11/25 11:05:32;;;;;;;;;;;8.10;92.50;;;;;;5081611;28;20384;-78
2023/11/25 11:08:03;;;;;;;;;;;8.40;92.80;;;;;;5077274;28;20031;-77
2023/11/25 11:10:38;;;;;;;;;;;9.10;93.50;;;;;;5088699;28;19908;-77
2023/11/25 11:13:06;;;;;;;;;;;10.00;93.90;;;;;;5076627;28;20055;-76
2023/11/25 11:15:32;;;;;;;;;;;11.10;93.90;;;;;;5083655;28;20308;-78
2023/11/25 11:18:06;;;;;;;;;;;11.80;93.60;;;;;;5083332;28;19921;-79
2023/11/25 11:20:36;;;;;;;;;;;12.10;93.30;;;;;;5077015;28;20380;-78
2023/11/25 11:23:03;;;;;;;;;;;12.00;92.80;;;;;;5079171;28;20326;-76
2023/11/25 11:26:01;;;;;;;;;;;11.60;92.70;;;;;;5079418;28;19987;-76
2023/11/25 11:28:47;;;;;;;;;;;11.30;92.60;;;;;;5048987;28;20345;-79
2023/11/25 11:31:31;;;;;;;;;;;10.90;92.70;;;;;;5047073;28;20003;-79
2023/11/25 11:33:56;;;;;;;;;;;10.80;92.80;;;;;;5072487;28;19909;-77
2023/11/25 11:36:29;;;;;;;;;;;10.60;92.70;;;;;;5089343;28;20352;-78
2023/11/25 11:38:56;;;;;;;;;;;10.60;92.70;;;;;;5082661;28;19973;-77
2023/11/25 11:41:21;;;;;;;;;;;10.40;92.50;;;;;;5080748;28;20018;-70
2023/11/25 11:44:03;;;;;;;;;;;10.30;92.40;;;;;;5081860;28;20447;-78
2023/11/25 11:46:38;;;;;;;;;;;10.20;92.40;;;;;;5078664;28;19916;-75
2023/11/25 11:49:08;;;;;;;;;;;10.10;92.50;;;;;;5079787;28;19913;-78
2023/11/25 11:51:34;;;;;;;;;;;10.10;92.40;;;;;;5086441;28;20252;-78
2023/11/25 11:54:18;;;;;;;;;;;10.10;92.40;;;;;;5084858;28;19931;-77
2023/11/25 11:57:02;;;;;;;;;;;10.00;92.40;;;;;;5089095;28;19912;-77
2023/11/25 11:59:46;;;;;;;;;;;10.00;92.50;;;;;;5078256;28;19913;-78
2023/11/25 12:02:12;;;;;;;;;;;10.00;92.50;;;;;;5080577;28;19920;-77
2023/11/25 12:04:38;;;;;;;;;;;10.00;92.50;;;;;;5071473;28;20020;-78
2023/11/25 12:07:03;;;;;;;;;;;10.00;92.50;;;;;;5068667;28;19913;-78
2023/11/25 12:09:29;;;;;;;;;;;10.00;92.60;;;;;;5072668;28;20036;-65
2023/11/25 12:12:00;;;;;;;;;;;10.00;92.60;;;;;;5069834;28;20320;-78
2023/11/25 12:14:26;;;;;;;;;;;10.00;92.50;;;;;;5070666;28;20284;-77
2023/11/25 12:16:52;;;;;;;;;;;9.90;92.40;;;;;;5068655;28;19930;-78
2023/11/25 12:19:17;;;;;;;;;;;9.90;92.30;;;;;;5069587;28;19916;-77
2023/11/25 12:21:44;;;;;;;;;;;9.80;92.30;;;;;;5068461;28;19912;-75
2023/11/25 12:24:13;;;;;;;;;;;9.70;92.30;;;;;;5067749;28;20011;-77
2023/11/25 12:26:39;;;;;;;;;;;9.70;92.40;;;;;;5068349;28;19917;-76
2023/11/25 12:29:06;;;;;;;;;;;9.60;92.40;;;;;;5068507;28;19915;-73
2023/11/25 12:31:32;;;;;;;;;;;9.60;92.50;;;;;;5069040;28;19912;-75
2023/11/25 12:34:01;;;;;;;;;;;9.50;92.40;;;;;;5068783;28;20314;-76
2023/11/25 12:36:26;;;;;;;;;;;9.50;92.50;;;;;;5069265;28;20307;-76
2023/11/25 12:38:53;;;;;;;;;;;9.50;92.60;;;;;;5069050;28;19999;-74
2023/11/25 12:41:18;;;;;;;;;;;9.60;92.60;;;;;;5066583;28;19939;-63
2023/11/25 12:44:03;;;;;;;;;;;9.70;92.70;;;;;;5068660;28;19916;-76
2023/11/25 12:46:29;;;;;;;;;;;9.70;92.50;;;;;;5069552;28;19944;-76
2023/11/25 12:48:57;;;;;;;;;;;9.70;92.50;;;;;;5069917;28;19960;-76
2023/11/25 12:51:23;;;;;;;;;;;9.80;92.50;;;;;;5070887;28;19912;-78
2023/11/25 12:53:55;;;;;;;;;;;9.80;92.50;;;;;;5069892;28;19912;-77
2023/11/25 12:56:21;;;;;;;;;;;9.70;92.40;;;;;;5068196;28;19916;-78
2023/11/25 12:58:47;;;;;;;;;;;9.70;92.50;;;;;;5050968;28;19916;-77
2023/11/25 13:01:13;;;;;;;;;;;9.60;92.60;;;;;;5067859;28;19915;-76
2023/11/25 13:03:39;;;;;;;;;;;9.60;92.70;;;;;;5067098;28;20372;-74
2023/11/25 13:06:06;;;;;;;;;;;9.70;92.70;;;;;;5068866;28;19923;-73
2023/11/25 13:08:36;;;;;;;;;;;9.70;92.70;;;;;;5066934;28;19920;-76
2023/11/25 13:11:08;;;;;;;;;;;9.90;92.70;;;;;;5068543;28;19954;-77
2023/11/25 13:13:34;;;;;;;;;;;9.90;92.70;;;;;;5067463;28;20016;-77
2023/11/25 13:16:01;;;;;;;;;;;10.00;92.60;;;;;;5068781;28;19954;-79
2023/11/25 13:18:26;;;;;;;;;;;10.10;92.60;;;;;;5068611;28;19965;-78
2023/11/25 13:20:53;;;;;;;;;;;10.00;92.50;;;;;;5072627;28;19995;-77
2023/11/25 13:23:19;;;;;;;;;;;10.00;92.60;;;;;;5081406;28;19912;-75
2023/11/25 13:25:48;;;;;;;;;;;10.00;92.50;;;;;;5079248;28;19920;-76
2023/11/25 13:28:14;;;;;;;;;;;10.00;92.50;;;;;;5069298;28;19912;-76
2023/11/25 13:30:41;;;;;;;;;;;10.00;92.50;;;;;;5068591;28;19908;-77
2023/11/25 13:33:06;;;;;;;;;;;9.90;92.50;;;;;;5068162;28;19921;-77
2023/11/25 13:35:33;;;;;;;;;;;9.90;92.50;;;;;;5067452;28;20433;-78
2023/11/25 13:37:59;;;;;;;;;;;9.90;92.50;;;;;;5050924;28;19919;-77
2023/11/25 13:40:29;;;;;;;;;;;9.90;92.50;;;;;;5072693;28;20011;-77
2023/11/25 13:42:55;;;;;;;;;;;9.90;92.50;;;;;;5072912;28;19999;-78
2023/11/25 13:45:21;;;;;;;;;;;10.00;92.60;;;;;;5071701;28;19962;-78
2023/11/25 13:47:49;;;;;;;;;;;10.00;92.40;;;;;;5072720;28;19952;-76
2023/11/25 13:50:15;;;;;;;;;;;10.00;92.40;;;;;;5071532;28;19912;-76
2023/11/25 13:52:40;;;;;;;;;;;9.90;92.40;;;;;;5073038;28;19913;-78
2023/11/25 13:55:06;;;;;;;;;;;9.80;92.40;;;;;;5071078;28;19917;-78
2023/11/25 13:57:33;;;;;;;;;;;9.80;92.50;;;;;;5072306;28;19944;-77
2023/11/25 13:59:58;;;;;;;;;;;9.70;92.60;;;;;;5071926;28;19938;-77
2023/11/25 14:02:27;;;;;;;;;;;9.70;92.60;;;;;;5072171;28;19928;-76
2023/11/25 14:04:53;;;;;;;;;;;9.70;92.60;;;;;;5071333;28;19913;-75
2023/11/25 14:07:19;;;;;;;;;;;9.70;92.50;;;;;;5072548;28;19923;-77
2023/11/25 14:09:44;;;;;;;;;;;9.70;92.50;;;;;;5071282;28;19913;-78
2023/11/25 14:12:10;;;;;;;;;;;9.60;92.40;;;;;;5072414;28;19923;-76
2023/11/25 14:14:36;;;;;;;;;;;9.50;92.40;;;;;;5071137;28;19920;-71
2023/11/25 14:17:01;;;;;;;;;;;9.40;92.40;;;;;;5071565;28;19922;-76
2023/11/25 14:19:27;;;;;;;;;;;9.40;92.50;;;;;;5071983;28;19957;-76
2023/11/25 14:21:53;;;;;;;;;;;9.40;92.40;;;;;;5070937;28;19912;-75
2023/11/25 14:24:18;;;;;;;;;;;9.30;92.40;;;;;;5073399;28;19999;-74
2023/11/25 14:26:44;;;;;;;;;;;9.40;92.50;;;;;;5071552;28;20007;-75